sensor_id;sensor_type;location;lat;lon;timestamp;temperature;humidity
39021;DHT22;25188;51.958;5.842;2022-09-17T00:00:37;12.10;91.20
39021;DHT22;25188;51.958;5.842;2022-09-17T00:03:04;12.20;91.00
39021;DHT22;25188;51.958;5.842;2022-09-17T00:05:30;12.20;91.00
39021;DHT22;25188;51.958;5.842;2022-09-17T00:07:56;12.20;90.90
39021;DHT22;25188;51.958;5.842;2022-09-17T00:10:22;12.30;90.90
39021;DHT22;25188;51.958;5.842;2022-09-17T00:12:49;12.30;90.80
39021;DHT22;25188;51.958;5.842;2022-09-17T00:15:15;12.30;90.80
39021;DHT22;25188;51.958;5.842;2022-09-17T00:17:41;12.30;90.70
39021;DHT22;25188;51.958;5.842;2022-09-17T00:20:09;12.20;90.70
39021;DHT22;25188;51.958;5.842;2022-09-17T00:22:36;12.20;90.80
39021;DHT22;25188;51.958;5.842;2022-09-17T00:25:03;12.20;90.90
39021;DHT22;25188;51.958;5.842;2022-09-17T00:27:28;12.20;90.90
39021;DHT22;25188;51.958;5.842;2022-09-17T00:29:54;12.20;91.00
39021;DHT22;25188;51.958;5.842;2022-09-17T00:32:20;12.20;90.90
39021;DHT22;25188;51.958;5.842;2022-09-17T00:34:46;12.20;91.20
39021;DHT22;25188;51.958;5.842;2022-09-17T00:37:13;12.20;91.30
39021;DHT22;25188;51.958;5.842;2022-09-17T00:39:39;12.20;91.40
39021;DHT22;25188;51.958;5.842;2022-09-17T00:42:05;12.20;91.40
39021;DHT22;25188;51.958;5.842;2022-09-17T00:44:54;12.20;91.40
39021;DHT22;25188;51.958;5.842;2022-09-17T00:47:32;12.30;91.50
39021;DHT22;25188;51.958;5.842;2022-09-17T00:50:07;12.30;91.60
39021;DHT22;25188;51.958;5.842;2022-09-17T00:52:43;12.20;91.60
39021;DHT22;25188;51.958;5.842;2022-09-17T00:55:36;12.30;91.70
39021;DHT22;25188;51.958;5.842;2022-09-17T00:58:05;12.20;91.70
39021;DHT22;25188;51.958;5.842;2022-09-17T01:00:32;12.30;91.80
39021;DHT22;25188;51.958;5.842;2022-09-17T01:02:58;12.20;91.90
39021;DHT22;25188;51.958;5.842;2022-09-17T01:11:28;12.30;92.30
39021;DHT22;25188;51.958;5.842;2022-09-17T01:22:17;12.20;92.40
39021;DHT22;25188;51.958;5.842;2022-09-17T01:24:47;12.20;92.50
39021;DHT22;25188;51.958;5.842;2022-09-17T01:35:13;12.20;92.60
39021;DHT22;25188;51.958;5.842;2022-09-17T01:38:30;12.20;92.70
39021;DHT22;25188;51.958;5.842;2022-09-17T01:43:31;12.20;92.80
39021;DHT22;25188;51.958;5.842;2022-09-17T01:46:11;12.20;92.80
39021;DHT22;25188;51.958;5.842;2022-09-17T01:48:42;12.10;92.90
39021;DHT22;25188;51.958;5.842;2022-09-17T01:51:19;12.10;93.00
39021;DHT22;25188;51.958;5.842;2022-09-17T01:53:57;12.10;93.00
39021;DHT22;25188;51.958;5.842;2022-09-17T01:56:37;12.00;93.10
39021;DHT22;25188;51.958;5.842;2022-09-17T01:59:21;12.00;93.10
39021;DHT22;25188;51.958;5.842;2022-09-17T02:01:52;11.90;93.10
39021;DHT22;25188;51.958;5.842;2022-09-17T02:04:27;11.90;93.20
39021;DHT22;25188;51.958;5.842;2022-09-17T02:07:01;11.80;93.20
39021;DHT22;25188;51.958;5.842;2022-09-17T02:09:42;11.80;93.20
39021;DHT22;25188;51.958;5.842;2022-09-17T02:12:15;11.80;93.30
39021;DHT22;25188;51.958;5.842;2022-09-17T02:14:51;11.70;93.40
39021;DHT22;25188;51.958;5.842;2022-09-17T02:17:31;11.70;93.40
39021;DHT22;25188;51.958;5.842;2022-09-17T02:20:00;11.70;93.50
39021;DHT22;25188;51.958;5.842;2022-09-17T02:22:37;11.60;93.50
39021;DHT22;25188;51.958;5.842;2022-09-17T02:30:10;11.50;93.80
39021;DHT22;25188;51.958;5.842;2022-09-17T02:32:36;11.50;94.10
39021;DHT22;25188;51.958;5.842;2022-09-17T02:35:03;11.60;93.90
39021;DHT22;25188;51.958;5.842;2022-09-17T02:37:28;11.40;93.90
39021;DHT22;25188;51.958;5.842;2022-09-17T02:39:54;11.40;94.10
39021;DHT22;25188;51.958;5.842;2022-09-17T02:42:58;11.30;94.00
39021;DHT22;25188;51.958;5.842;2022-09-17T02:48:34;11.30;94.20
39021;DHT22;25188;51.958;5.842;2022-09-17T02:54:06;11.20;94.20
39021;DHT22;25188;51.958;5.842;2022-09-17T02:56:47;11.20;94.30
39021;DHT22;25188;51.958;5.842;2022-09-17T02:59:36;11.10;94.30
39021;DHT22;25188;51.958;5.842;2022-09-17T03:02:39;11.10;94.30
39021;DHT22;25188;51.958;5.842;2022-09-17T03:05:08;11.00;94.40
39021;DHT22;25188;51.958;5.842;2022-09-17T03:07:34;11.00;94.50
39021;DHT22;25188;51.958;5.842;2022-09-17T03:10:00;11.00;94.60
39021;DHT22;25188;51.958;5.842;2022-09-17T03:12:26;11.00;94.60
39021;DHT22;25188;51.958;5.842;2022-09-17T03:14:52;10.90;94.60
39021;DHT22;25188;51.958;5.842;2022-09-17T03:17:17;10.90;94.70
39021;DHT22;25188;51.958;5.842;2022-09-17T03:19:43;10.90;94.70
39021;DHT22;25188;51.958;5.842;2022-09-17T03:22:09;10.90;94.80
39021;DHT22;25188;51.958;5.842;2022-09-17T03:24:34;10.80;94.90
39021;DHT22;25188;51.958;5.842;2022-09-17T03:27:00;10.80;95.10
39021;DHT22;25188;51.958;5.842;2022-09-17T03:29:25;10.80;95.10
39021;DHT22;25188;51.958;5.842;2022-09-17T03:31:51;10.70;95.10
39021;DHT22;25188;51.958;5.842;2022-09-17T03:34:17;10.70;95.20
39021;DHT22;25188;51.958;5.842;2022-09-17T03:36:43;10.70;95.40
39021;DHT22;25188;51.958;5.842;2022-09-17T03:39:08;10.70;95.40
39021;DHT22;25188;51.958;5.842;2022-09-17T03:41:34;10.60;95.40
39021;DHT22;25188;51.958;5.842;2022-09-17T03:43:59;10.60;95.40
39021;DHT22;25188;51.958;5.842;2022-09-17T03:46:25;10.60;95.40
39021;DHT22;25188;51.958;5.842;2022-09-17T03:48:51;10.50;95.40
39021;DHT22;25188;51.958;5.842;2022-09-17T03:51:16;10.50;95.50
39021;DHT22;25188;51.958;5.842;2022-09-17T03:53:42;10.50;95.50
39021;DHT22;25188;51.958;5.842;2022-09-17T03:56:08;10.40;95.60
39021;DHT22;25188;51.958;5.842;2022-09-17T03:58:34;10.40;95.70
39021;DHT22;25188;51.958;5.842;2022-09-17T04:01:00;10.40;95.70
39021;DHT22;25188;51.958;5.842;2022-09-17T04:03:27;10.40;95.70
39021;DHT22;25188;51.958;5.842;2022-09-17T04:05:54;10.40;95.80
39021;DHT22;25188;51.958;5.842;2022-09-17T04:08:20;10.40;95.70
39021;DHT22;25188;51.958;5.842;2022-09-17T04:10:46;10.40;95.80
39021;DHT22;25188;51.958;5.842;2022-09-17T04:13:14;10.40;95.80
39021;DHT22;25188;51.958;5.842;2022-09-17T04:15:40;10.40;95.80
39021;DHT22;25188;51.958;5.842;2022-09-17T04:18:06;10.40;95.90
39021;DHT22;25188;51.958;5.842;2022-09-17T04:20:32;10.40;95.90
39021;DHT22;25188;51.958;5.842;2022-09-17T04:22:57;10.40;95.90
39021;DHT22;25188;51.958;5.842;2022-09-17T04:25:23;10.50;96.10
39021;DHT22;25188;51.958;5.842;2022-09-17T04:27:49;10.50;96.20
39021;DHT22;25188;51.958;5.842;2022-09-17T04:30:15;10.40;96.20
39021;DHT22;25188;51.958;5.842;2022-09-17T04:32:43;10.50;96.40
39021;DHT22;25188;51.958;5.842;2022-09-17T04:35:08;10.50;96.40
39021;DHT22;25188;51.958;5.842;2022-09-17T04:37:34;10.50;96.40
39021;DHT22;25188;51.958;5.842;2022-09-17T04:40:00;10.50;96.30
39021;DHT22;25188;51.958;5.842;2022-09-17T04:42:26;10.50;96.30
39021;DHT22;25188;51.958;5.842;2022-09-17T04:44:51;10.50;96.40
39021;DHT22;25188;51.958;5.842;2022-09-17T04:47:17;10.50;96.40
39021;DHT22;25188;51.958;5.842;2022-09-17T04:49:42;10.50;96.50
39021;DHT22;25188;51.958;5.842;2022-09-17T04:52:08;10.50;96.50
39021;DHT22;25188;51.958;5.842;2022-09-17T04:54:33;10.50;96.40
39021;DHT22;25188;51.958;5.842;2022-09-17T04:56:59;10.50;96.40
39021;DHT22;25188;51.958;5.842;2022-09-17T04:59:25;10.50;96.40
39021;DHT22;25188;51.958;5.842;2022-09-17T05:01:51;10.50;96.30
39021;DHT22;25188;51.958;5.842;2022-09-17T05:04:17;10.50;96.40
39021;DHT22;25188;51.958;5.842;2022-09-17T05:06:42;10.50;96.30
39021;DHT22;25188;51.958;5.842;2022-09-17T05:09:08;10.40;96.30
39021;DHT22;25188;51.958;5.842;2022-09-17T05:11:34;10.40;96.40
39021;DHT22;25188;51.958;5.842;2022-09-17T05:13:59;10.40;96.40
39021;DHT22;25188;51.958;5.842;2022-09-17T05:16:25;10.40;96.50
39021;DHT22;25188;51.958;5.842;2022-09-17T05:18:51;10.40;96.60
39021;DHT22;25188;51.958;5.842;2022-09-17T05:21:20;10.40;96.70
39021;DHT22;25188;51.958;5.842;2022-09-17T05:23:46;10.40;96.60
39021;DHT22;25188;51.958;5.842;2022-09-17T05:26:12;10.40;96.60
39021;DHT22;25188;51.958;5.842;2022-09-17T05:28:38;10.50;96.70
39021;DHT22;25188;51.958;5.842;2022-09-17T05:31:04;10.50;96.90
39021;DHT22;25188;51.958;5.842;2022-09-17T05:33:29;10.50;96.60
39021;DHT22;25188;51.958;5.842;2022-09-17T05:35:55;10.60;96.60
39021;DHT22;25188;51.958;5.842;2022-09-17T05:38:21;10.50;96.50
39021;DHT22;25188;51.958;5.842;2022-09-17T05:40:46;10.60;96.60
39021;DHT22;25188;51.958;5.842;2022-09-17T05:43:13;10.50;96.50
39021;DHT22;25188;51.958;5.842;2022-09-17T05:45:39;10.50;96.40
39021;DHT22;25188;51.958;5.842;2022-09-17T05:48:08;10.60;96.40
39021;DHT22;25188;51.958;5.842;2022-09-17T05:50:34;10.50;96.40
39021;DHT22;25188;51.958;5.842;2022-09-17T05:53:11;10.60;96.40
39021;DHT22;25188;51.958;5.842;2022-09-17T05:55:38;10.60;96.40
39021;DHT22;25188;51.958;5.842;2022-09-17T05:58:15;10.60;96.30
39021;DHT22;25188;51.958;5.842;2022-09-17T06:00:41;10.60;96.30
39021;DHT22;25188;51.958;5.842;2022-09-17T06:03:12;10.60;96.30
39021;DHT22;25188;51.958;5.842;2022-09-17T06:05:38;10.60;96.30
39021;DHT22;25188;51.958;5.842;2022-09-17T06:08:04;10.60;96.40
39021;DHT22;25188;51.958;5.842;2022-09-17T06:10:31;10.70;96.10
39021;DHT22;25188;51.958;5.842;2022-09-17T06:12:57;10.70;96.10
39021;DHT22;25188;51.958;5.842;2022-09-17T06:15:24;10.70;96.10
39021;DHT22;25188;51.958;5.842;2022-09-17T06:17:50;10.70;96.00
39021;DHT22;25188;51.958;5.842;2022-09-17T06:20:17;10.80;95.80
39021;DHT22;25188;51.958;5.842;2022-09-17T06:22:43;10.70;95.80
39021;DHT22;25188;51.958;5.842;2022-09-17T06:25:08;10.80;95.80
39021;DHT22;25188;51.958;5.842;2022-09-17T06:27:34;10.70;96.00
39021;DHT22;25188;51.958;5.842;2022-09-17T06:30:01;10.80;95.60
39021;DHT22;25188;51.958;5.842;2022-09-17T06:32:27;10.90;95.40
39021;DHT22;25188;51.958;5.842;2022-09-17T06:34:53;10.90;95.40
39021;DHT22;25188;51.958;5.842;2022-09-17T06:37:26;11.00;95.30
39021;DHT22;25188;51.958;5.842;2022-09-17T06:39:51;11.00;95.20
39021;DHT22;25188;51.958;5.842;2022-09-17T06:42:18;11.10;94.90
39021;DHT22;25188;51.958;5.842;2022-09-17T06:44:43;11.10;94.80
39021;DHT22;25188;51.958;5.842;2022-09-17T06:47:09;11.10;94.60
39021;DHT22;25188;51.958;5.842;2022-09-17T06:49:34;11.20;94.60
39021;DHT22;25188;51.958;5.842;2022-09-17T06:52:00;11.20;94.70
39021;DHT22;25188;51.958;5.842;2022-09-17T06:54:26;11.20;94.70
39021;DHT22;25188;51.958;5.842;2022-09-17T06:56:51;11.30;94.90
39021;DHT22;25188;51.958;5.842;2022-09-17T06:59:17;11.30;94.60
39021;DHT22;25188;51.958;5.842;2022-09-17T07:01:43;11.30;94.30
39021;DHT22;25188;51.958;5.842;2022-09-17T07:04:08;11.40;94.40
39021;DHT22;25188;51.958;5.842;2022-09-17T07:06:34;11.50;94.40
39021;DHT22;25188;51.958;5.842;2022-09-17T07:09:00;11.50;94.40
39021;DHT22;25188;51.958;5.842;2022-09-17T07:11:26;11.60;94.30
39021;DHT22;25188;51.958;5.842;2022-09-17T07:13:53;11.60;94.00
39021;DHT22;25188;51.958;5.842;2022-09-17T07:16:20;11.50;93.90
39021;DHT22;25188;51.958;5.842;2022-09-17T07:18:46;11.70;94.00
39021;DHT22;25188;51.958;5.842;2022-09-17T07:21:11;11.80;94.00
39021;DHT22;25188;51.958;5.842;2022-09-17T07:23:37;11.80;93.90
39021;DHT22;25188;51.958;5.842;2022-09-17T07:26:11;11.80;93.90
39021;DHT22;25188;51.958;5.842;2022-09-17T07:28:38;11.90;93.60
39021;DHT22;25188;51.958;5.842;2022-09-17T07:31:04;12.00;93.40
39021;DHT22;25188;51.958;5.842;2022-09-17T07:33:31;12.00;93.50
39021;DHT22;25188;51.958;5.842;2022-09-17T07:36:03;12.00;93.80
39021;DHT22;25188;51.958;5.842;2022-09-17T07:38:29;12.20;93.40
39021;DHT22;25188;51.958;5.842;2022-09-17T07:41:06;12.10;93.00
39021;DHT22;25188;51.958;5.842;2022-09-17T07:43:34;12.30;92.90
39021;DHT22;25188;51.958;5.842;2022-09-17T07:46:01;12.30;92.80
39021;DHT22;25188;51.958;5.842;2022-09-17T07:48:28;12.30;92.50
39021;DHT22;25188;51.958;5.842;2022-09-17T07:50:55;12.40;92.40
39021;DHT22;25188;51.958;5.842;2022-09-17T07:53:21;12.40;92.00
39021;DHT22;25188;51.958;5.842;2022-09-17T07:55:53;12.50;91.60
39021;DHT22;25188;51.958;5.842;2022-09-17T07:58:21;12.60;91.60
39021;DHT22;25188;51.958;5.842;2022-09-17T08:00:47;12.60;91.30
39021;DHT22;25188;51.958;5.842;2022-09-17T08:03:13;12.70;91.00
39021;DHT22;25188;51.958;5.842;2022-09-17T08:05:39;12.80;90.70
39021;DHT22;25188;51.958;5.842;2022-09-17T08:08:04;12.80;90.40
39021;DHT22;25188;51.958;5.842;2022-09-17T08:10:30;12.80;90.30
39021;DHT22;25188;51.958;5.842;2022-09-17T08:12:56;12.90;90.10
39021;DHT22;25188;51.958;5.842;2022-09-17T08:15:23;13.00;90.10
39021;DHT22;25188;51.958;5.842;2022-09-17T08:17:49;13.10;90.20
39021;DHT22;25188;51.958;5.842;2022-09-17T08:20:15;13.10;89.60
39021;DHT22;25188;51.958;5.842;2022-09-17T08:22:42;13.10;89.60
39021;DHT22;25188;51.958;5.842;2022-09-17T08:25:08;13.20;89.30
39021;DHT22;25188;51.958;5.842;2022-09-17T08:27:34;13.30;88.30
39021;DHT22;25188;51.958;5.842;2022-09-17T08:30:00;13.30;88.60
39021;DHT22;25188;51.958;5.842;2022-09-17T08:32:28;13.40;88.10
39021;DHT22;25188;51.958;5.842;2022-09-17T08:34:54;13.50;87.70
39021;DHT22;25188;51.958;5.842;2022-09-17T08:37:20;13.50;87.20
39021;DHT22;25188;51.958;5.842;2022-09-17T08:39:46;13.50;87.20
39021;DHT22;25188;51.958;5.842;2022-09-17T08:42:26;13.80;86.60
39021;DHT22;25188;51.958;5.842;2022-09-17T08:44:55;14.00;85.00
39021;DHT22;25188;51.958;5.842;2022-09-17T08:47:24;14.10;84.40
39021;DHT22;25188;51.958;5.842;2022-09-17T08:50:05;14.30;83.90
39021;DHT22;25188;51.958;5.842;2022-09-17T08:55:36;14.50;82.10
39021;DHT22;25188;51.958;5.842;2022-09-17T09:01:52;14.60;81.60
39021;DHT22;25188;51.958;5.842;2022-09-17T09:06:54;14.60;80.50
39021;DHT22;25188;51.958;5.842;2022-09-17T09:09:26;14.70;80.30
39021;DHT22;25188;51.958;5.842;2022-09-17T09:12:06;14.60;79.00
39021;DHT22;25188;51.958;5.842;2022-09-17T09:14:36;14.60;79.30
39021;DHT22;25188;51.958;5.842;2022-09-17T09:17:07;14.60;79.90
39021;DHT22;25188;51.958;5.842;2022-09-17T09:19:41;14.60;76.90
39021;DHT22;25188;51.958;5.842;2022-09-17T09:22:44;14.50;75.90
39021;DHT22;25188;51.958;5.842;2022-09-17T09:25:25;14.50;76.80
39021;DHT22;25188;51.958;5.842;2022-09-17T09:28:18;14.50;77.30
39021;DHT22;25188;51.958;5.842;2022-09-17T09:30:58;14.50;76.40
39021;DHT22;25188;51.958;5.842;2022-09-17T09:33:35;14.50;75.60
39021;DHT22;25188;51.958;5.842;2022-09-17T09:36:06;14.50;75.10
39021;DHT22;25188;51.958;5.842;2022-09-17T09:38:36;14.50;75.30
39021;DHT22;25188;51.958;5.842;2022-09-17T09:44:09;14.60;75.40
39021;DHT22;25188;51.958;5.842;2022-09-17T09:52:50;14.70;76.00
39021;DHT22;25188;51.958;5.842;2022-09-17T09:56:03;14.80;75.70
39021;DHT22;25188;51.958;5.842;2022-09-17T09:58:38;15.10;75.00
39021;DHT22;25188;51.958;5.842;2022-09-17T10:01:14;15.30;74.20
39021;DHT22;25188;51.958;5.842;2022-09-17T10:03:42;15.60;73.60
39021;DHT22;25188;51.958;5.842;2022-09-17T10:06:11;15.80;73.30
39021;DHT22;25188;51.958;5.842;2022-09-17T10:08:40;15.90;72.80
39021;DHT22;25188;51.958;5.842;2022-09-17T10:13:38;16.00;73.10
39021;DHT22;25188;51.958;5.842;2022-09-17T10:16:31;15.90;74.30
39021;DHT22;25188;51.958;5.842;2022-09-17T10:21:34;15.80;76.50
39021;DHT22;25188;51.958;5.842;2022-09-17T10:24:01;15.80;77.10
39021;DHT22;25188;51.958;5.842;2022-09-17T10:26:33;16.20;79.00
39021;DHT22;25188;51.958;5.842;2022-09-17T10:29:02;16.60;78.90
39021;DHT22;25188;51.958;5.842;2022-09-17T10:31:53;16.80;78.60
39021;DHT22;25188;51.958;5.842;2022-09-17T10:34:27;16.90;78.40
39021;DHT22;25188;51.958;5.842;2022-09-17T10:36:55;17.00;77.90
39021;DHT22;25188;51.958;5.842;2022-09-17T10:39:35;16.90;74.50
39021;DHT22;25188;51.958;5.842;2022-09-17T10:42:15;16.70;73.30
39021;DHT22;25188;51.958;5.842;2022-09-17T10:44:51;16.40;72.70
39021;DHT22;25188;51.958;5.842;2022-09-17T10:47:30;16.20;72.20
39021;DHT22;25188;51.958;5.842;2022-09-17T10:50:01;16.10;73.60
39021;DHT22;25188;51.958;5.842;2022-09-17T10:52:37;16.70;75.40
39021;DHT22;25188;51.958;5.842;2022-09-17T11:04:25;19.90;68.60
39021;DHT22;25188;51.958;5.842;2022-09-17T11:18:02;20.70;60.40
39021;DHT22;25188;51.958;5.842;2022-09-17T11:37:51;22.70;56.20
39021;DHT22;25188;51.958;5.842;2022-09-17T11:40:23;22.30;54.80
39021;DHT22;25188;51.958;5.842;2022-09-17T11:42:54;22.00;55.70
39021;DHT22;25188;51.958;5.842;2022-09-17T11:45:32;22.10;54.60
39021;DHT22;25188;51.958;5.842;2022-09-17T11:48:17;21.80;53.60
39021;DHT22;25188;51.958;5.842;2022-09-17T11:50:56;21.60;54.10
39021;DHT22;25188;51.958;5.842;2022-09-17T11:56:04;21.60;55.00
39021;DHT22;25188;51.958;5.842;2022-09-17T12:01:07;21.30;53.80
39021;DHT22;25188;51.958;5.842;2022-09-17T12:03:42;20.90;53.50
39021;DHT22;25188;51.958;5.842;2022-09-17T12:06:13;20.40;54.00
39021;DHT22;25188;51.958;5.842;2022-09-17T12:08:59;19.90;55.30
39021;DHT22;25188;51.958;5.842;2022-09-17T12:11:46;19.40;57.10
39021;DHT22;25188;51.958;5.842;2022-09-17T12:14:22;18.60;61.10
39021;DHT22;25188;51.958;5.842;2022-09-17T12:16:55;18.10;63.10
39021;DHT22;25188;51.958;5.842;2022-09-17T12:19:34;18.20;65.30
39021;DHT22;25188;51.958;5.842;2022-09-17T12:22:08;18.90;66.30
39021;DHT22;25188;51.958;5.842;2022-09-17T12:24:35;19.20;64.10
39021;DHT22;25188;51.958;5.842;2022-09-17T12:47:15;21.80;56.10
39021;DHT22;25188;51.958;5.842;2022-09-17T13:01:05;18.70;59.60
39021;DHT22;25188;51.958;5.842;2022-09-17T13:03:35;18.90;60.00
39021;DHT22;25188;51.958;5.842;2022-09-17T13:14:17;21.10;57.20
39021;DHT22;25188;51.958;5.842;2022-09-17T13:17:03;21.70;56.00
39021;DHT22;25188;51.958;5.842;2022-09-17T13:22:05;22.30;55.50
39021;DHT22;25188;51.958;5.842;2022-09-17T13:24:32;22.60;54.40
39021;DHT22;25188;51.958;5.842;2022-09-17T13:27:01;22.90;53.90
39021;DHT22;25188;51.958;5.842;2022-09-17T13:34:55;21.80;52.20
39021;DHT22;25188;51.958;5.842;2022-09-17T13:37:21;21.20;53.20
39021;DHT22;25188;51.958;5.842;2022-09-17T13:39:49;20.50;53.80
39021;DHT22;25188;51.958;5.842;2022-09-17T13:42:18;19.80;54.90
39021;DHT22;25188;51.958;5.842;2022-09-17T13:44:52;19.40;56.70
39021;DHT22;25188;51.958;5.842;2022-09-17T13:47:31;18.80;57.50
39021;DHT22;25188;51.958;5.842;2022-09-17T13:52:48;18.50;59.00
39021;DHT22;25188;51.958;5.842;2022-09-17T14:22:02;20.70;54.00
39021;DHT22;25188;51.958;5.842;2022-09-17T14:30:21;18.20;61.70
39021;DHT22;25188;51.958;5.842;2022-09-17T14:35:27;18.80;62.30
39021;DHT22;25188;51.958;5.842;2022-09-17T14:38:12;19.50;61.40
39021;DHT22;25188;51.958;5.842;2022-09-17T14:40:47;20.10;59.50
39021;DHT22;25188;51.958;5.842;2022-09-17T14:46:24;21.30;56.70
39021;DHT22;25188;51.958;5.842;2022-09-17T14:48:51;21.80;56.10
39021;DHT22;25188;51.958;5.842;2022-09-17T14:53:43;22.50;54.00
39021;DHT22;25188;51.958;5.842;2022-09-17T14:56:19;22.50;52.30
39021;DHT22;25188;51.958;5.842;2022-09-17T14:58:53;22.20;51.20
39021;DHT22;25188;51.958;5.842;2022-09-17T15:01:24;22.10;50.10
39021;DHT22;25188;51.958;5.842;2022-09-17T15:04:14;22.20;48.50
39021;DHT22;25188;51.958;5.842;2022-09-17T15:06:45;22.50;48.70
39021;DHT22;25188;51.958;5.842;2022-09-17T15:09:30;22.80;48.60
39021;DHT22;25188;51.958;5.842;2022-09-17T15:11:58;23.10;47.30
39021;DHT22;25188;51.958;5.842;2022-09-17T15:14:33;23.40;47.40
39021;DHT22;25188;51.958;5.842;2022-09-17T15:17:02;23.40;45.50
39021;DHT22;25188;51.958;5.842;2022-09-17T15:19:37;23.30;46.10
39021;DHT22;25188;51.958;5.842;2022-09-17T15:22:15;23.30;46.70
39021;DHT22;25188;51.958;5.842;2022-09-17T15:27:28;23.70;46.40
39021;DHT22;25188;51.958;5.842;2022-09-17T15:30:19;23.80;45.70
39021;DHT22;25188;51.958;5.842;2022-09-17T15:32:56;23.90;45.90
39021;DHT22;25188;51.958;5.842;2022-09-17T15:35:27;24.00;45.70
39021;DHT22;25188;51.958;5.842;2022-09-17T15:38:02;23.80;44.80
39021;DHT22;25188;51.958;5.842;2022-09-17T15:40:38;23.60;45.70
39021;DHT22;25188;51.958;5.842;2022-09-17T15:43:34;23.80;45.60
39021;DHT22;25188;51.958;5.842;2022-09-17T15:46:25;23.40;45.60
39021;DHT22;25188;51.958;5.842;2022-09-17T15:48:56;22.70;48.60
39021;DHT22;25188;51.958;5.842;2022-09-17T15:51:33;21.90;49.80
39021;DHT22;25188;51.958;5.842;2022-09-17T15:54:00;21.20;51.20
39021;DHT22;25188;51.958;5.842;2022-09-17T15:56:32;20.50;52.90
39021;DHT22;25188;51.958;5.842;2022-09-17T15:59:01;19.80;54.80
39021;DHT22;25188;51.958;5.842;2022-09-17T16:04:24;18.90;57.50
39021;DHT22;25188;51.958;5.842;2022-09-17T16:09:48;18.30;59.70
39021;DHT22;25188;51.958;5.842;2022-09-17T16:12:17;18.30;60.10
39021;DHT22;25188;51.958;5.842;2022-09-17T16:14:45;18.20;60.70
39021;DHT22;25188;51.958;5.842;2022-09-17T16:19:56;18.10;61.00
39021;DHT22;25188;51.958;5.842;2022-09-17T16:22:22;18.00;61.10
39021;DHT22;25188;51.958;5.842;2022-09-17T16:24:47;17.90;61.40
39021;DHT22;25188;51.958;5.842;2022-09-17T16:27:22;17.80;61.50
39021;DHT22;25188;51.958;5.842;2022-09-17T16:29:50;17.80;61.80
39021;DHT22;25188;51.958;5.842;2022-09-17T16:32:16;17.60;61.80
39021;DHT22;25188;51.958;5.842;2022-09-17T16:34:42;17.40;62.20
39021;DHT22;25188;51.958;5.842;2022-09-17T16:37:09;17.40;62.30
39021;DHT22;25188;51.958;5.842;2022-09-17T16:39:35;17.30;62.00
39021;DHT22;25188;51.958;5.842;2022-09-17T16:42:01;17.30;61.90
39021;DHT22;25188;51.958;5.842;2022-09-17T16:44:26;17.10;62.10
39021;DHT22;25188;51.958;5.842;2022-09-17T16:46:52;17.00;62.50
39021;DHT22;25188;51.958;5.842;2022-09-17T16:49:18;16.80;62.80
39021;DHT22;25188;51.958;5.842;2022-09-17T16:51:43;16.60;63.00
39021;DHT22;25188;51.958;5.842;2022-09-17T16:54:09;16.50;63.20
39021;DHT22;25188;51.958;5.842;2022-09-17T16:56:35;16.40;63.70
39021;DHT22;25188;51.958;5.842;2022-09-17T16:59:00;16.30;63.70
39021;DHT22;25188;51.958;5.842;2022-09-17T17:01:26;16.20;64.10
39021;DHT22;25188;51.958;5.842;2022-09-17T17:03:52;16.20;64.60
39021;DHT22;25188;51.958;5.842;2022-09-17T17:06:20;16.00;64.70
39021;DHT22;25188;51.958;5.842;2022-09-17T17:08:46;16.00;65.10
39021;DHT22;25188;51.958;5.842;2022-09-17T17:11:12;16.00;65.60
39021;DHT22;25188;51.958;5.842;2022-09-17T17:13:40;15.90;65.50
39021;DHT22;25188;51.958;5.842;2022-09-17T17:16:12;15.80;66.00
39021;DHT22;25188;51.958;5.842;2022-09-17T17:18:40;15.70;66.70
39021;DHT22;25188;51.958;5.842;2022-09-17T17:21:12;15.70;66.40
39021;DHT22;25188;51.958;5.842;2022-09-17T17:23:38;15.70;66.60
39021;DHT22;25188;51.958;5.842;2022-09-17T17:26:04;15.70;66.80
39021;DHT22;25188;51.958;5.842;2022-09-17T17:28:32;15.60;66.70
39021;DHT22;25188;51.958;5.842;2022-09-17T17:30:58;15.60;67.00
39021;DHT22;25188;51.958;5.842;2022-09-17T17:33:24;15.60;67.00
39021;DHT22;25188;51.958;5.842;2022-09-17T17:35:49;15.60;67.20
39021;DHT22;25188;51.958;5.842;2022-09-17T17:38:18;15.60;67.50
39021;DHT22;25188;51.958;5.842;2022-09-17T17:40:44;15.50;67.60
39021;DHT22;25188;51.958;5.842;2022-09-17T17:43:11;15.40;68.00
39021;DHT22;25188;51.958;5.842;2022-09-17T17:45:40;15.30;68.00
39021;DHT22;25188;51.958;5.842;2022-09-17T17:48:05;15.20;68.70
39021;DHT22;25188;51.958;5.842;2022-09-17T17:50:32;15.10;69.60
39021;DHT22;25188;51.958;5.842;2022-09-17T17:52:57;15.00;70.80
39021;DHT22;25188;51.958;5.842;2022-09-17T17:55:23;14.80;71.10
39021;DHT22;25188;51.958;5.842;2022-09-17T17:57:55;14.70;71.70
39021;DHT22;25188;51.958;5.842;2022-09-17T18:00:21;14.50;72.50
39021;DHT22;25188;51.958;5.842;2022-09-17T18:02:49;14.50;73.30
39021;DHT22;25188;51.958;5.842;2022-09-17T18:05:14;14.40;73.80
39021;DHT22;25188;51.958;5.842;2022-09-17T18:07:40;14.30;74.40
39021;DHT22;25188;51.958;5.842;2022-09-17T18:10:06;14.20;74.80
39021;DHT22;25188;51.958;5.842;2022-09-17T18:12:32;14.20;75.30
39021;DHT22;25188;51.958;5.842;2022-09-17T18:14:57;14.10;75.50
39021;DHT22;25188;51.958;5.842;2022-09-17T18:17:33;14.00;76.10
39021;DHT22;25188;51.958;5.842;2022-09-17T18:20:01;14.00;76.40
39021;DHT22;25188;51.958;5.842;2022-09-17T18:22:29;13.90;76.70
39021;DHT22;25188;51.958;5.842;2022-09-17T18:24:54;13.90;77.00
39021;DHT22;25188;51.958;5.842;2022-09-17T18:27:20;13.90;77.20
39021;DHT22;25188;51.958;5.842;2022-09-17T18:29:54;13.80;77.60
39021;DHT22;25188;51.958;5.842;2022-09-17T18:32:19;13.80;77.90
39021;DHT22;25188;51.958;5.842;2022-09-17T18:34:47;13.70;78.40
39021;DHT22;25188;51.958;5.842;2022-09-17T18:37:13;13.60;78.90
39021;DHT22;25188;51.958;5.842;2022-09-17T18:39:41;13.60;79.10
39021;DHT22;25188;51.958;5.842;2022-09-17T18:42:07;13.50;79.40
39021;DHT22;25188;51.958;5.842;2022-09-17T18:44:43;13.50;79.90
39021;DHT22;25188;51.958;5.842;2022-09-17T18:47:09;13.50;80.30
39021;DHT22;25188;51.958;5.842;2022-09-17T18:49:34;13.50;81.20
39021;DHT22;25188;51.958;5.842;2022-09-17T18:52:00;13.40;81.50
39021;DHT22;25188;51.958;5.842;2022-09-17T18:54:26;13.40;82.10
39021;DHT22;25188;51.958;5.842;2022-09-17T18:56:52;13.40;82.30
39021;DHT22;25188;51.958;5.842;2022-09-17T18:59:17;13.30;82.70
39021;DHT22;25188;51.958;5.842;2022-09-17T19:01:43;13.20;83.00
39021;DHT22;25188;51.958;5.842;2022-09-17T19:04:09;13.20;83.20
39021;DHT22;25188;51.958;5.842;2022-09-17T19:06:35;13.20;83.70
39021;DHT22;25188;51.958;5.842;2022-09-17T19:09:02;13.10;83.70
39021;DHT22;25188;51.958;5.842;2022-09-17T19:11:28;13.10;83.90